Time;durP1;ratioP1;P1;durP2;ratioP2;P2;SDS_P1;SDS_P2;PMS_P1;PMS_P2;Temp;Humidity;BMP_temperature;BMP_pressure;BME280_temperature;BME280_humidity;BME280_pressure;Samples;Min_cycle;Max_cycle;Signal;HPM_P1;HPM_P2
2023/10/27 00:00:38;;;;;;;28.98;16.80;;;;;;;;;;6250840;22;20069;-84
2023/10/27 00:03:05;;;;;;;27.08;15.48;;;;;;;;;;6250548;22;20020;-84
2023/10/27 00:05:31;;;;;;;29.00;15.65;;;;;;;;;;6249847;22;20038;-85
2023/10/27 00:07:57;;;;;;;27.00;16.15;;;;;;;;;;6250075;22;20020;-85
2023/10/27 00:10:24;;;;;;;27.05;15.65;;;;;;;;;;6249858;22;20142;-84
2023/10/27 00:12:50;;;;;;;28.10;16.50;;;;;;;;;;6249701;22;20448;-85
2023/10/27 00:15:17;;;;;;;29.63;16.83;;;;;;;;;;6249773;22;20020;-85
2023/10/27 00:17:43;;;;;;;28.75;15.63;;;;;;;;;;6249813;22;20073;-85
2023/10/27 00:20:09;;;;;;;28.70;16.38;;;;;;;;;;6249908;22;20118;-85
2023/10/27 00:22:35;;;;;;;27.73;15.90;;;;;;;;;;6249596;22;20341;-85
2023/10/27 00:25:02;;;;;;;29.08;17.17;;;;;;;;;;6249917;22;20027;-85
2023/10/27 00:27:28;;;;;;;26.73;15.85;;;;;;;;;;6250319;22;20546;-85
2023/10/27 00:29:54;;;;;;;30.55;15.98;;;;;;;;;;6249923;22;20019;-85
2023/10/27 00:32:20;;;;;;;31.10;16.77;;;;;;;;;;6249579;22;20074;-84
2023/10/27 00:34:46;;;;;;;28.70;17.23;;;;;;;;;;6249485;22;20095;-85
2023/10/27 00:37:12;;;;;;;31.98;16.88;;;;;;;;;;6249500;22;20047;-85
2023/10/27 00:39:41;;;;;;;28.35;16.08;;;;;;;;;;6276937;22;20047;-85
2023/10/27 00:42:07;;;;;;;28.35;15.57;;;;;;;;;;6249465;22;20117;-84
2023/10/27 00:44:33;;;;;;;29.33;15.70;;;;;;;;;;6249681;22;20016;-84
2023/10/27 00:46:59;;;;;;;27.75;15.75;;;;;;;;;;6249424;22;20076;-85
2023/10/27 00:49:27;;;;;;;27.75;15.13;;;;;;;;;;6249391;22;20024;-85
2023/10/27 00:51:54;;;;;;;29.52;15.07;;;;;;;;;;6249244;22;20015;-85
2023/10/27 00:54:21;;;;;;;25.42;15.38;;;;;;;;;;6223719;22;20474;-85
2023/10/27 00:56:47;;;;;;;25.95;15.70;;;;;;;;;;6249023;22;20027;-85
2023/10/27 00:59:14;;;;;;;25.60;15.40;;;;;;;;;;6249275;22;20456;-84
2023/10/27 01:01:41;;;;;;;26.20;14.07;;;;;;;;;;6248990;22;20336;-85
2023/10/27 01:04:07;;;;;;;25.40;15.18;;;;;;;;;;6249339;22;20022;-84
2023/10/27 01:06:33;;;;;;;23.88;13.90;;;;;;;;;;6248969;22;20028;-84
2023/10/27 01:08:59;;;;;;;24.38;14.27;;;;;;;;;;6276412;22;20094;-85
2023/10/27 01:11:26;;;;;;;24.70;14.68;;;;;;;;;;6249181;22;20016;-84
2023/10/27 01:13:52;;;;;;;25.33;14.10;;;;;;;;;;6249164;22;20090;-85
2023/10/27 01:16:18;;;;;;;22.50;13.93;;;;;;;;;;6248704;22;20484;-85
2023/10/27 01:18:44;;;;;;;22.67;13.13;;;;;;;;;;6249136;22;20039;-84
2023/10/27 01:21:10;;;;;;;22.20;13.10;;;;;;;;;;6249160;22;20020;-85
2023/10/27 01:23:37;;;;;;;20.42;13.23;;;;;;;;;;6249192;22;20348;-84
2023/10/27 01:26:03;;;;;;;23.42;13.15;;;;;;;;;;6248817;22;20077;-85
2023/10/27 01:28:30;;;;;;;25.42;13.95;;;;;;;;;;6249151;22;20397;-84
2023/10/27 01:30:56;;;;;;;23.65;14.35;;;;;;;;;;6248902;22;20015;-84
2023/10/27 01:33:23;;;;;;;23.30;13.45;;;;;;;;;;6248977;22;20091;-85
2023/10/27 01:35:49;;;;;;;23.60;12.93;;;;;;;;;;6249004;22;20012;-84
2023/10/27 01:38:15;;;;;;;22.73;14.23;;;;;;;;;;6249065;22;20027;-85
2023/10/27 01:40:41;;;;;;;26.88;13.70;;;;;;;;;;6248896;22;20023;-85
2023/10/27 01:43:07;;;;;;;27.20;13.18;;;;;;;;;;6249120;22;20022;-84
2023/10/27 01:45:33;;;;;;;26.52;13.75;;;;;;;;;;6249203;22;20019;-85
2023/10/27 01:47:59;;;;;;;25.85;13.52;;;;;;;;;;6248934;22;20019;-84
2023/10/27 01:50:25;;;;;;;25.80;14.18;;;;;;;;;;6249268;22;20087;-85
2023/10/27 01:52:51;;;;;;;23.92;13.90;;;;;;;;;;6248759;22;20019;-84
2023/10/27 01:55:17;;;;;;;26.02;14.35;;;;;;;;;;6248789;22;20069;-84
2023/10/27 01:57:43;;;;;;;28.90;14.40;;;;;;;;;;6248678;22;20043;-84
2023/10/27 02:00:10;;;;;;;25.38;14.20;;;;;;;;;;6248724;22;20444;-84
2023/10/27 02:02:36;;;;;;;27.83;14.32;;;;;;;;;;6276234;22;20022;-85
2023/10/27 02:05:07;;;;;;;25.33;14.43;;;;;;;;;;6248784;22;20046;-85
2023/10/27 02:07:33;;;;;;;27.75;14.50;;;;;;;;;;6248691;22;20065;-85
2023/10/27 02:09:59;;;;;;;27.95;14.63;;;;;;;;;;6248626;22;20012;-85
2023/10/27 02:12:28;;;;;;;25.92;15.48;;;;;;;;;;6248469;22;20020;-85
2023/10/27 02:14:54;;;;;;;26.33;13.73;;;;;;;;;;6248585;22;20090;-85
2023/10/27 02:17:21;;;;;;;29.70;15.02;;;;;;;;;;6248340;22;20046;-84
2023/10/27 02:19:47;;;;;;;30.48;15.73;;;;;;;;;;6223601;22;20329;-85
2023/10/27 02:22:13;;;;;;;25.20;13.98;;;;;;;;;;6248771;22;20016;-84
2023/10/27 02:24:40;;;;;;;28.25;14.85;;;;;;;;;;6275818;22;20019;-85
2023/10/27 02:27:06;;;;;;;28.15;14.90;;;;;;;;;;6248451;22;20038;-85
2023/10/27 02:29:33;;;;;;;26.88;14.27;;;;;;;;;;6248944;22;20016;-85
2023/10/27 02:31:59;;;;;;;27.92;14.80;;;;;;;;;;6248621;22;20011;-85
2023/10/27 02:34:25;;;;;;;28.23;14.75;;;;;;;;;;6248607;22;20108;-85
2023/10/27 02:36:51;;;;;;;25.95;14.52;;;;;;;;;;6248396;22;20022;-85
2023/10/27 02:39:17;;;;;;;27.40;15.57;;;;;;;;;;6248671;22;20115;-85
2023/10/27 02:41:43;;;;;;;27.10;15.63;;;;;;;;;;6248819;22;20019;-85
2023/10/27 02:44:09;;;;;;;27.00;14.95;;;;;;;;;;6248952;22;20016;-85
2023/10/27 02:46:36;;;;;;;26.88;15.43;;;;;;;;;;6248534;22;20015;-85
2023/10/27 02:49:03;;;;;;;29.38;15.85;;;;;;;;;;6248306;22;20015;-84
2023/10/27 02:51:30;;;;;;;30.83;15.57;;;;;;;;;;6248853;22;20061;-84
2023/10/27 02:53:56;;;;;;;27.27;15.43;;;;;;;;;;6248122;22;20459;-85
2023/10/27 02:56:22;;;;;;;31.02;15.40;;;;;;;;;;6248090;22;20067;-84
2023/10/27 02:58:49;;;;;;;29.35;15.10;;;;;;;;;;6248482;22;20023;-85
2023/10/27 03:01:15;;;;;;;31.25;16.80;;;;;;;;;;6248511;22;20027;-85
2023/10/27 03:03:41;;;;;;;30.17;15.98;;;;;;;;;;6248769;22;20018;-85
2023/10/27 03:06:08;;;;;;;28.33;15.38;;;;;;;;;;6248354;22;20054;-85
2023/10/27 03:08:35;;;;;;;28.60;16.20;;;;;;;;;;6248358;22;20018;-84
2023/10/27 03:11:01;;;;;;;25.88;15.25;;;;;;;;;;6248412;22;20020;-84
2023/10/27 03:13:27;;;;;;;30.50;16.05;;;;;;;;;;6248330;22;20022;-85
2023/10/27 03:15:53;;;;;;;25.80;15.45;;;;;;;;;;6248440;22;20022;-85
2023/10/27 03:18:20;;;;;;;23.83;15.00;;;;;;;;;;6248534;22;20043;-85
2023/10/27 03:20:46;;;;;;;31.20;16.15;;;;;;;;;;6248295;22;20090;-85
2023/10/27 03:23:12;;;;;;;27.75;16.33;;;;;;;;;;6248257;22;20043;-84
2023/10/27 03:25:38;;;;;;;29.08;16.48;;;;;;;;;;6248660;22;20019;-84
2023/10/27 03:28:04;;;;;;;25.75;15.60;;;;;;;;;;6248378;22;20019;-84
2023/10/27 03:30:30;;;;;;;28.67;16.30;;;;;;;;;;6250258;22;20020;-84
2023/10/27 03:32:56;;;;;;;27.45;16.08;;;;;;;;;;6250220;22;20019;-84
2023/10/27 03:35:22;;;;;;;28.27;15.07;;;;;;;;;;6250244;22;20020;-84
2023/10/27 03:37:48;;;;;;;29.35;16.70;;;;;;;;;;6250081;22;20095;-84
2023/10/27 03:40:14;;;;;;;28.20;15.38;;;;;;;;;;6250764;22;20020;-85
2023/10/27 03:42:40;;;;;;;27.13;16.63;;;;;;;;;;6249985;22;20524;-84
2023/10/27 03:45:07;;;;;;;26.65;15.30;;;;;;;;;;6250296;22;20055;-85
2023/10/27 03:47:33;;;;;;;25.60;15.95;;;;;;;;;;6277283;22;20047;-85
2023/10/27 03:49:59;;;;;;;28.42;16.35;;;;;;;;;;6250621;22;20016;-85
2023/10/27 03:52:25;;;;;;;23.80;15.00;;;;;;;;;;6249837;22;20025;-84
2023/10/27 03:54:51;;;;;;;28.20;15.43;;;;;;;;;;6249685;22;20073;-84
2023/10/27 03:57:17;;;;;;;28.10;16.80;;;;;;;;;;6249706;22;20456;-84
2023/10/27 03:59:43;;;;;;;26.38;15.10;;;;;;;;;;6249960;22;20050;-85
2023/10/27 04:02:09;;;;;;;25.33;14.90;;;;;;;;;;6249668;22;20051;-85
2023/10/27 04:04:35;;;;;;;24.80;14.85;;;;;;;;;;6249882;22;20087;-85
2023/10/27 04:07:02;;;;;;;24.55;14.18;;;;;;;;;;6249827;22;20015;-85
2023/10/27 04:09:28;;;;;;;26.00;15.88;;;;;;;;;;6224574;22;20023;-85
2023/10/27 04:11:54;;;;;;;26.98;16.05;;;;;;;;;;6249617;22;20081;-84
2023/10/27 04:14:20;;;;;;;26.13;15.77;;;;;;;;;;6249849;22;20012;-85
2023/10/27 04:16:46;;;;;;;24.80;15.02;;;;;;;;;;6249402;22;20018;-85
2023/10/27 04:19:12;;;;;;;25.60;15.05;;;;;;;;;;6249805;22;20321;-84
2023/10/27 04:21:38;;;;;;;24.05;14.95;;;;;;;;;;6249554;22;20023;-85
2023/10/27 04:24:05;;;;;;;29.52;16.25;;;;;;;;;;6249769;22;20070;-85
2023/10/27 04:26:31;;;;;;;27.25;15.75;;;;;;;;;;6249580;22;20037;-85
2023/10/27 04:28:57;;;;;;;23.75;14.50;;;;;;;;;;6249639;22;20372;-84
2023/10/27 04:31:23;;;;;;;25.75;14.45;;;;;;;;;;6249774;22;20012;-85
2023/10/27 04:33:49;;;;;;;25.88;15.15;;;;;;;;;;6249784;22;20016;-85
2023/10/27 04:36:16;;;;;;;24.70;14.98;;;;;;;;;;6249378;22;20016;-85
2023/10/27 04:38:42;;;;;;;27.13;15.63;;;;;;;;;;6249729;22;20020;-85
2023/10/27 04:41:09;;;;;;;24.17;14.07;;;;;;;;;;6249108;22;20555;-85
2023/10/27 04:43:35;;;;;;;27.17;15.35;;;;;;;;;;6249454;22;20015;-84
2023/10/27 04:46:02;;;;;;;26.42;15.25;;;;;;;;;;6249382;22;20352;-85
2023/10/27 04:48:28;;;;;;;27.48;15.80;;;;;;;;;;6249469;22;20038;-85
2023/10/27 04:50:58;;;;;;;27.50;15.15;;;;;;;;;;6249289;22;20336;-85
2023/10/27 04:53:25;;;;;;;28.30;14.73;;;;;;;;;;6249330;22;20011;-85
2023/10/27 04:55:51;;;;;;;27.40;14.95;;;;;;;;;;6249367;22;20019;-85
2023/10/27 04:58:17;;;;;;;29.85;15.20;;;;;;;;;;6249249;22;20016;-84
2023/10/27 05:00:43;;;;;;;26.67;14.88;;;;;;;;;;6224186;22;20102;-84
2023/10/27 05:03:09;;;;;;;27.33;15.48;;;;;;;;;;6249826;22;20023;-85
2023/10/27 05:05:35;;;;;;;26.70;15.30;;;;;;;;;;6249714;22;20020;-85
2023/10/27 05:08:01;;;;;;;29.38;15.38;;;;;;;;;;6249410;22;20024;-85
2023/10/27 05:10:27;;;;;;;26.92;16.10;;;;;;;;;;6224271;22;20467;-85
2023/10/27 05:12:55;;;;;;;30.13;15.50;;;;;;;;;;6249109;22;20023;-85
2023/10/27 05:15:21;;;;;;;28.23;15.25;;;;;;;;;;6249259;22;20017;-85
2023/10/27 05:17:47;;;;;;;28.60;15.57;;;;;;;;;;6249120;22;20047;-85
2023/10/27 05:20:13;;;;;;;26.20;15.07;;;;;;;;;;6249138;22;20030;-84
2023/10/27 05:22:39;;;;;;;26.70;14.63;;;;;;;;;;6249038;22;20027;-84
2023/10/27 05:25:06;;;;;;;26.23;14.60;;;;;;;;;;6249752;22;20095;-84
2023/10/27 05:27:35;;;;;;;27.90;15.85;;;;;;;;;;6248916;22;20020;-84
2023/10/27 05:30:01;;;;;;;26.88;15.00;;;;;;;;;;6249393;22;20377;-85
2023/10/27 05:32:27;;;;;;;27.00;15.52;;;;;;;;;;6248752;22;20012;-84
2023/10/27 05:34:54;;;;;;;29.98;16.50;;;;;;;;;;6249274;22;20094;-85
2023/10/27 05:37:21;;;;;;;28.27;14.13;;;;;;;;;;6248879;22;20094;-85
2023/10/27 05:39:47;;;;;;;30.00;15.80;;;;;;;;;;6249108;22;20491;-85
2023/10/27 05:42:13;;;;;;;28.92;15.95;;;;;;;;;;6248827;22;20016;-85
2023/10/27 05:44:41;;;;;;;27.83;16.02;;;;;;;;;;6249200;22;20026;-85
2023/10/27 05:47:07;;;;;;;26.67;14.50;;;;;;;;;;6249530;22;20367;-85
2023/10/27 05:49:33;;;;;;;26.45;14.70;;;;;;;;;;6248959;22;20016;-85
2023/10/27 05:52:02;;;;;;;27.60;14.98;;;;;;;;;;6248407;22;20047;-85
2023/10/27 05:54:29;;;;;;;24.73;14.65;;;;;;;;;;6249104;22;20047;-85
2023/10/27 05:56:55;;;;;;;27.60;15.32;;;;;;;;;;6248733;22;20030;-84
2023/10/27 05:59:21;;;;;;;28.10;15.93;;;;;;;;;;6249011;22;20024;-85
2023/10/27 06:01:48;;;;;;;27.75;15.70;;;;;;;;;;6248604;22;20094;-85
2023/10/27 06:04:15;;;;;;;29.17;16.33;;;;;;;;;;6248834;22;20024;-84
2023/10/27 06:06:41;;;;;;;29.88;16.35;;;;;;;;;;6248565;22;20025;-85
2023/10/27 06:09:07;;;;;;;31.35;16.17;;;;;;;;;;6248806;22;20428;-84
2023/10/27 06:11:33;;;;;;;27.83;15.57;;;;;;;;;;6275745;22;20016;-84
2023/10/27 06:13:59;;;;;;;26.02;15.85;;;;;;;;;;6249509;22;20015;-85
2023/10/27 06:16:25;;;;;;;29.05;16.63;;;;;;;;;;6248442;22;20017;-85
2023/10/27 06:18:52;;;;;;;28.40;16.30;;;;;;;;;;6248736;22;20026;-84
2023/10/27 06:21:18;;;;;;;31.80;17.40;;;;;;;;;;6248487;22;20020;-84
2023/10/27 06:23:44;;;;;;;28.15;14.93;;;;;;;;;;6248757;22;20095;-84
2023/10/27 06:26:10;;;;;;;28.40;15.25;;;;;;;;;;6248546;22;20095;-85
2023/10/27 06:28:36;;;;;;;25.90;15.00;;;;;;;;;;6248630;22;20379;-85
2023/10/27 06:31:03;;;;;;;28.95;14.40;;;;;;;;;;6248536;22;20027;-85
2023/10/27 06:33:32;;;;;;;27.13;15.10;;;;;;;;;;6248779;22;20046;-85
2023/10/27 06:35:59;;;;;;;27.85;15.30;;;;;;;;;;6248477;22;20441;-84
2023/10/27 06:38:25;;;;;;;25.38;14.85;;;;;;;;;;6248653;22;20020;-85
2023/10/27 06:40:51;;;;;;;28.08;15.35;;;;;;;;;;6248880;22;20023;-85
2023/10/27 06:43:17;;;;;;;28.02;15.27;;;;;;;;;;6248430;22;20011;-85
2023/10/27 06:45:44;;;;;;;26.13;15.65;;;;;;;;;;6248448;22;20031;-84
2023/10/27 06:48:10;;;;;;;28.08;15.85;;;;;;;;;;6223105;22;20023;-84
2023/10/27 06:50:36;;;;;;;28.95;15.90;;;;;;;;;;6248491;22;20020;-85
2023/10/27 06:53:02;;;;;;;26.75;15.15;;;;;;;;;;6242294;23;20034;-85
2023/10/27 06:55:28;;;;;;;29.55;15.55;;;;;;;;;;6218052;23;20092;-85
2023/10/27 06:57:56;;;;;;;26.35;14.52;;;;;;;;;;6217945;23;20087;-85
2023/10/27 07:00:22;;;;;;;30.35;16.20;;;;;;;;;;6218073;23;20478;-85
2023/10/27 07:02:48;;;;;;;27.98;15.60;;;;;;;;;;6218086;23;20024;-85
2023/10/27 07:05:16;;;;;;;26.33;14.68;;;;;;;;;;6220176;23;20047;-85
2023/10/27 07:07:43;;;;;;;27.45;15.52;;;;;;;;;;6220128;23;20028;-85
2023/10/27 07:10:09;;;;;;;29.50;16.02;;;;;;;;;;6220165;23;20016;-85
2023/10/27 07:12:35;;;;;;;24.70;14.70;;;;;;;;;;6219869;23;20082;-84
2023/10/27 07:15:01;;;;;;;25.27;15.07;;;;;;;;;;6220118;23;20054;-85
2023/10/27 07:17:28;;;;;;;27.63;14.75;;;;;;;;;;6220357;23;20024;-85
2023/10/27 07:19:54;;;;;;;27.15;15.50;;;;;;;;;;6220111;23;20302;-84
2023/10/27 07:22:20;;;;;;;25.48;14.98;;;;;;;;;;6219884;23;20344;-84
2023/10/27 07:24:49;;;;;;;24.65;14.77;;;;;;;;;;6220270;23;20412;-85
2023/10/27 07:27:15;;;;;;;23.85;13.70;;;;;;;;;;6220178;23;20044;-84
2023/10/27 07:29:41;;;;;;;23.58;14.85;;;;;;;;;;6220167;23;20020;-85
2023/10/27 07:32:07;;;;;;;22.23;13.80;;;;;;;;;;6220120;23;20076;-85
2023/10/27 07:34:33;;;;;;;22.10;13.18;;;;;;;;;;6220082;23;20026;-85
2023/10/27 07:36:59;;;;;;;24.95;13.77;;;;;;;;;;6219960;23;20083;-85
2023/10/27 07:39:25;;;;;;;22.80;13.70;;;;;;;;;;6220274;23;20055;-85
2023/10/27 07:41:51;;;;;;;22.70;13.68;;;;;;;;;;6220013;23;20020;-85
2023/10/27 07:44:18;;;;;;;24.90;14.20;;;;;;;;;;6220018;23;20020;-85
2023/10/27 07:46:44;;;;;;;24.67;13.93;;;;;;;;;;6220102;23;20133;-84
2023/10/27 07:49:10;;;;;;;24.30;14.15;;;;;;;;;;6219905;23;20353;-85
2023/10/27 07:51:36;;;;;;;23.58;13.68;;;;;;;;;;6219931;23;20016;-84
2023/10/27 07:54:04;;;;;;;21.40;13.52;;;;;;;;;;6219968;23;20028;-85
2023/10/27 07:56:30;;;;;;;21.73;12.90;;;;;;;;;;6219859;23;20058;-85
2023/10/27 07:58:56;;;;;;;21.88;13.38;;;;;;;;;;6220122;23;20020;-85
2023/10/27 08:01:22;;;;;;;18.17;12.05;;;;;;;;;;6220903;23;20042;-84
2023/10/27 08:03:48;;;;;;;21.20;12.98;;;;;;;;;;6220091;23;20012;-84
2023/10/27 08:06:14;;;;;;;19.33;12.70;;;;;;;;;;6220828;23;20028;-85
2023/10/27 08:08:40;;;;;;;18.13;11.65;;;;;;;;;;6195079;23;20019;-84
2023/10/27 08:11:06;;;;;;;20.63;12.68;;;;;;;;;;6195485;23;20016;-85
2023/10/27 08:13:32;;;;;;;18.80;11.77;;;;;;;;;;6194966;23;20453;-85
2023/10/27 08:16:02;;;;;;;18.45;12.13;;;;;;;;;;6219518;23;20078;-85
2023/10/27 08:18:28;;;;;;;19.75;12.70;;;;;;;;;;6194913;23;20016;-85
2023/10/27 08:20:56;;;;;;;19.17;12.60;;;;;;;;;;6194950;23;20094;-85
2023/10/27 08:23:22;;;;;;;20.00;12.55;;;;;;;;;;6220191;23;20020;-84
2023/10/27 08:25:51;;;;;;;18.90;12.25;;;;;;;;;;6220048;23;20070;-85
2023/10/27 08:28:18;;;;;;;17.17;11.95;;;;;;;;;;6220117;23;20016;-85
2023/10/27 08:30:44;;;;;;;18.67;12.52;;;;;;;;;;6219823;23;20383;-85
2023/10/27 08:33:10;;;;;;;19.60;12.63;;;;;;;;;;6194943;23;20016;-85
2023/10/27 08:35:37;;;;;;;17.58;11.65;;;;;;;;;;6194641;23;20016;-84
2023/10/27 08:38:03;;;;;;;18.08;11.82;;;;;;;;;;6219861;23;20016;-84
2023/10/27 08:40:29;;;;;;;18.08;11.20;;;;;;;;;;6219936;23;20101;-84
2023/10/27 08:42:57;;;;;;;18.95;12.15;;;;;;;;;;6219828;23;20022;-85
2023/10/27 08:45:24;;;;;;;21.20;13.05;;;;;;;;;;6220277;23;20016;-84
2023/10/27 08:47:53;;;;;;;17.15;11.32;;;;;;;;;;6220113;23;20044;-84
2023/10/27 08:50:20;;;;;;;20.23;12.93;;;;;;;;;;6194854;23;20086;-84
2023/10/27 08:52:48;;;;;;;19.38;12.68;;;;;;;;;;6222576;22;20012;-85
2023/10/27 08:55:15;;;;;;;17.27;11.98;;;;;;;;;;6250084;22;20016;-85
2023/10/27 08:57:41;;;;;;;16.67;11.25;;;;;;;;;;6249992;22;20022;-85
2023/10/27 09:00:07;;;;;;;15.68;10.75;;;;;;;;;;6250182;22;20031;-84
2023/10/27 09:02:34;;;;;;;17.52;11.32;;;;;;;;;;6249946;22;20012;-84
2023/10/27 09:05:05;;;;;;;18.27;12.68;;;;;;;;;;6224522;22;20016;-85
2023/10/27 09:07:34;;;;;;;17.75;11.52;;;;;;;;;;6249985;22;20019;-85
2023/10/27 09:10:01;;;;;;;17.52;11.98;;;;;;;;;;6249838;22;20091;-85
2023/10/27 09:12:30;;;;;;;17.00;11.57;;;;;;;;;;6249709;22;20034;-84
2023/10/27 09:15:00;;;;;;;16.58;11.65;;;;;;;;;;6249698;22;20074;-85
2023/10/27 09:17:29;;;;;;;16.70;11.15;;;;;;;;;;6249713;22;20020;-84
2023/10/27 09:20:11;;;;;;;16.27;11.38;;;;;;;;;;6249730;22;20034;-84
2023/10/27 09:22:37;;;;;;;16.10;10.90;;;;;;;;;;6249270;22;20456;-84
2023/10/27 09:25:13;;;;;;;15.32;11.05;;;;;;;;;;6249422;22;20024;-84
2023/10/27 09:27:43;;;;;;;14.93;10.45;;;;;;;;;;6248829;22;20542;-85
2023/10/27 09:30:12;;;;;;;15.25;10.73;;;;;;;;;;6249068;22;20045;-84
2023/10/27 09:32:40;;;;;;;13.45;9.95;;;;;;;;;;6248956;22;20101;-85
2023/10/27 09:35:09;;;;;;;15.10;10.23;;;;;;;;;;6249389;22;20030;-85
2023/10/27 09:37:41;;;;;;;13.55;9.38;;;;;;;;;;6249019;22;20078;-85
2023/10/27 09:40:09;;;;;;;13.48;9.40;;;;;;;;;;6249886;22;20042;-85
2023/10/27 09:42:37;;;;;;;14.27;10.07;;;;;;;;;;6248848;22;20026;-85
2023/10/27 09:45:07;;;;;;;14.00;9.70;;;;;;;;;;6249325;22;20023;-84
2023/10/27 09:47:42;;;;;;;11.85;8.70;;;;;;;;;;6248941;22;20333;-85
2023/10/27 09:50:13;;;;;;;12.27;9.10;;;;;;;;;;6249516;22;20355;-85
2023/10/27 09:52:40;;;;;;;12.15;8.98;;;;;;;;;;6248629;22;20023;-85
2023/10/27 09:55:08;;;;;;;11.82;8.57;;;;;;;;;;6248632;22;20347;-85
2023/10/27 09:57:34;;;;;;;11.60;8.30;;;;;;;;;;6248721;22;20514;-85
2023/10/27 10:00:01;;;;;;;11.98;8.73;;;;;;;;;;6248827;22;20066;-84
2023/10/27 10:02:29;;;;;;;11.65;8.07;;;;;;;;;;6248876;22;20011;-85
2023/10/27 10:05:00;;;;;;;11.60;8.60;;;;;;;;;;6248746;22;20019;-84
2023/10/27 10:07:29;;;;;;;10.88;7.93;;;;;;;;;;6248791;22;20336;-85
2023/10/27 10:09:55;;;;;;;11.55;8.43;;;;;;;;;;6248818;22;20078;-85
2023/10/27 10:12:21;;;;;;;11.90;8.45;;;;;;;;;;6248793;22;20340;-85
2023/10/27 10:14:51;;;;;;;11.98;8.75;;;;;;;;;;6248765;22;20027;-85
2023/10/27 10:17:36;;;;;;;12.20;8.40;;;;;;;;;;6248455;22;20395;-85
2023/10/27 10:20:02;;;;;;;11.25;8.38;;;;;;;;;;6248697;22;20024;-85
2023/10/27 10:22:38;;;;;;;11.10;8.07;;;;;;;;;;6248543;22;20016;-85
2023/10/27 10:25:19;;;;;;;10.97;8.10;;;;;;;;;;6248576;22;20016;-84
2023/10/27 10:28:04;;;;;;;10.52;8.25;;;;;;;;;;6248375;22;20050;-84
2023/10/27 10:30:30;;;;;;;9.95;7.65;;;;;;;;;;6248392;22;20012;-85
2023/10/27 10:33:29;;;;;;;10.60;8.43;;;;;;;;;;6248251;22;20019;-85
2023/10/27 10:36:24;;;;;;;11.32;7.63;;;;;;;;;;6183025;22;20095;-85
2023/10/27 10:38:53;;;;;;;9.77;7.28;;;;;;;;;;6248080;22;20020;-85
2023/10/27 10:41:19;;;;;;;9.30;7.25;;;;;;;;;;6248906;22;20016;-84
2023/10/27 10:43:46;;;;;;;9.90;7.70;;;;;;;;;;6248881;22;20026;-85
2023/10/27 10:46:13;;;;;;;8.45;7.03;;;;;;;;;;6249208;22;20511;-84
2023/10/27 10:48:46;;;;;;;10.25;7.35;;;;;;;;;;6248896;22;20043;-85
2023/10/27 10:51:18;;;;;;;10.38;7.93;;;;;;;;;;6248624;22;20018;-85
2023/10/27 10:53:44;;;;;;;9.77;7.70;;;;;;;;;;6248673;22;20408;-85
2023/10/27 10:56:10;;;;;;;10.35;7.60;;;;;;;;;;6249089;22;20098;-84
2023/10/27 10:58:37;;;;;;;10.05;7.63;;;;;;;;;;6249302;22;20023;-85
2023/10/27 11:01:04;;;;;;;10.77;7.80;;;;;;;;;;6249351;22;20019;-85
2023/10/27 11:03:36;;;;;;;9.60;7.78;;;;;;;;;;6249052;22;20031;-85
2023/10/27 11:06:05;;;;;;;9.95;7.78;;;;;;;;;;6223777;22;20456;-85
2023/10/27 11:08:32;;;;;;;10.88;7.97;;;;;;;;;;6249761;22;20059;-85
2023/10/27 11:10:59;;;;;;;10.90;7.88;;;;;;;;;;6249888;22;20015;-85
2023/10/27 11:13:25;;;;;;;9.45;7.25;;;;;;;;;;6224430;22;20020;-85
2023/10/27 11:15:51;;;;;;;9.02;7.10;;;;;;;;;;6224734;22;20020;-85
2023/10/27 11:18:18;;;;;;;10.32;7.60;;;;;;;;;;6224495;22;20026;-85
2023/10/27 11:20:44;;;;;;;10.60;8.05;;;;;;;;;;6249198;22;20020;-85
2023/10/27 11:23:12;;;;;;;8.23;6.70;;;;;;;;;;6276049;22;20012;-85
2023/10/27 11:25:38;;;;;;;8.77;7.00;;;;;;;;;;6248697;22;20074;-85
2023/10/27 11:28:20;;;;;;;8.63;6.80;;;;;;;;;;6248732;22;20024;-85
2023/10/27 11:31:05;;;;;;;8.88;7.03;;;;;;;;;;6248889;22;20351;-85
2023/10/27 11:33:31;;;;;;;9.07;7.07;;;;;;;;;;6275425;22;20440;-85
2023/10/27 11:35:58;;;;;;;7.85;6.70;;;;;;;;;;6248487;22;20095;-85
2023/10/27 11:38:30;;;;;;;7.93;6.78;;;;;;;;;;6223441;22;20026;-85
2023/10/27 11:41:08;;;;;;;8.27;7.05;;;;;;;;;;6223208;22;20080;-85
2023/10/27 11:43:34;;;;;;;8.90;7.07;;;;;;;;;;6223191;22;20031;-85
2023/10/27 11:46:08;;;;;;;8.23;6.90;;;;;;;;;;6275906;22;20351;-84
2023/10/27 11:48:34;;;;;;;9.05;7.07;;;;;;;;;;6248544;22;20293;-85
2023/10/27 11:51:00;;;;;;;9.05;7.45;;;;;;;;;;6277569;22;20377;-84
2023/10/27 11:53:26;;;;;;;11.30;9.05;;;;;;;;;;6250413;22;20027;-85
2023/10/27 11:55:52;;;;;;;14.68;12.05;;;;;;;;;;6250599;22;20012;-85
2023/10/27 11:58:18;;;;;;;15.32;12.68;;;;;;;;;;6250732;22;20020;-85
2023/10/27 12:00:44;;;;;;;13.45;10.57;;;;;;;;;;6251506;22;20145;-85
2023/10/27 12:03:10;;;;;;;10.63;9.32;;;;;;;;;;6250789;22;20089;-85
2023/10/27 12:05:36;;;;;;;9.60;7.70;;;;;;;;;;6250135;22;20343;-85
2023/10/27 12:08:02;;;;;;;8.85;7.95;;;;;;;;;;6249911;22;20016;-85
2023/10/27 12:10:32;;;;;;;10.10;9.02;;;;;;;;;;6249906;22;20015;-85
2023/10/27 12:12:58;;;;;;;9.05;7.90;;;;;;;;;;6249914;22;20012;-85
2023/10/27 12:15:24;;;;;;;8.88;7.70;;;;;;;;;;6249818;22;20070;-85
2023/10/27 12:17:50;;;;;;;9.60;7.78;;;;;;;;;;6249723;22;20101;-85
2023/10/27 12:20:17;;;;;;;8.40;7.13;;;;;;;;;;6249936;22;20054;-84
2023/10/27 12:22:46;;;;;;;9.55;7.00;;;;;;;;;;6249749;22;20015;-85
2023/10/27 12:25:12;;;;;;;9.75;7.13;;;;;;;;;;6249887;22;20051;-85
2023/10/27 12:27:39;;;;;;;10.20;8.10;;;;;;;;;;6249900;22;20077;-85
2023/10/27 12:30:05;;;;;;;10.50;8.35;;;;;;;;;;6249790;22;20351;-85
2023/10/27 12:32:35;;;;;;;10.18;7.15;;;;;;;;;;6249630;22;20031;-85
2023/10/27 12:35:01;;;;;;;8.98;6.45;;;;;;;;;;6249649;22;20016;-85
2023/10/27 12:37:27;;;;;;;10.57;8.60;;;;;;;;;;6249591;22;20039;-85
2023/10/27 12:39:53;;;;;;;9.00;7.25;;;;;;;;;;6249883;22;20466;-85
2023/10/27 12:42:19;;;;;;;11.27;8.35;;;;;;;;;;6249554;22;20356;-85
2023/10/27 12:44:46;;;;;;;11.70;7.85;;;;;;;;;;6249870;22;20051;-85
2023/10/27 12:47:12;;;;;;;56.97;40.33;;;;;;;;;;6249359;22;20019;-85
2023/10/27 12:49:40;;;;;;;16.65;13.93;;;;;;;;;;6249647;22;20018;-85
2023/10/27 12:52:07;;;;;;;10.70;8.35;;;;;;;;;;6249176;22;20018;-85
2023/10/27 12:54:36;;;;;;;10.20;8.32;;;;;;;;;;6249762;22;20217;-85
2023/10/27 12:57:03;;;;;;;11.90;9.32;;;;;;;;;;6249051;22;20019;-85
2023/10/27 12:59:29;;;;;;;11.32;8.85;;;;;;;;;;6249527;22;20313;-85
2023/10/27 13:01:55;;;;;;;10.25;7.57;;;;;;;;;;6249475;22;20054;-85
2023/10/27 13:04:23;;;;;;;9.88;7.30;;;;;;;;;;6249492;22;20016;-85
2023/10/27 13:06:50;;;;;;;10.60;7.63;;;;;;;;;;6249314;22;20023;-85
2023/10/27 13:09:17;;;;;;;10.18;7.30;;;;;;;;;;6249477;22;20387;-85
2023/10/27 13:11:43;;;;;;;10.13;7.32;;;;;;;;;;6224068;22;20387;-85
2023/10/27 13:14:11;;;;;;;10.95;7.30;;;;;;;;;;6249434;22;20016;-85
2023/10/27 13:16:39;;;;;;;10.43;7.35;;;;;;;;;;6223928;22;20062;-85
2023/10/27 13:19:05;;;;;;;10.63;7.43;;;;;;;;;;6249312;22;20016;-85
2023/10/27 13:21:35;;;;;;;10.10;7.40;;;;;;;;;;6249206;22;20047;-85
2023/10/27 13:24:04;;;;;;;10.82;7.28;;;;;;;;;;6249237;22;20027;-85
2023/10/27 13:26:30;;;;;;;10.73;7.47;;;;;;;;;;6249014;22;20020;-85
2023/10/27 13:28:57;;;;;;;13.85;10.27;;;;;;;;;;6249031;22;20069;-85
2023/10/27 13:31:23;;;;;;;12.40;9.40;;;;;;;;;;6248955;22;20035;-85
2023/10/27 13:33:49;;;;;;;18.58;13.25;;;;;;;;;;6249084;22;20065;-85
2023/10/27 13:36:17;;;;;;;10.55;8.27;;;;;;;;;;6248741;22;20018;-85
2023/10/27 13:38:43;;;;;;;15.18;10.23;;;;;;;;;;6249078;22;20019;-85
2023/10/27 13:41:16;;;;;;;13.93;9.07;;;;;;;;;;6248750;22;20439;-85
2023/10/27 13:43:42;;;;;;;15.98;10.52;;;;;;;;;;6248884;22;20290;-85
2023/10/27 13:46:08;;;;;;;14.63;9.68;;;;;;;;;;6248793;22;20019;-85
2023/10/27 13:48:34;;;;;;;21.58;13.15;;;;;;;;;;6248717;22;20078;-85
2023/10/27 13:51:10;;;;;;;13.35;9.00;;;;;;;;;;6248675;22;20517;-85
2023/10/27 13:53:37;;;;;;;24.90;15.13;;;;;;;;;;6248854;22;20027;-85
2023/10/27 13:56:04;;;;;;;12.57;9.02;;;;;;;;;;6249180;22;20020;-85
2023/10/27 13:58:32;;;;;;;16.95;11.13;;;;;;;;;;6248696;22;20024;-85
2023/10/27 14:00:58;;;;;;;21.73;13.80;;;;;;;;;;6248792;22;20111;-85
2023/10/27 14:03:24;;;;;;;39.28;23.92;;;;;;;;;;6248684;22;20470;-85
2023/10/27 14:05:50;;;;;;;15.63;11.32;;;;;;;;;;6248825;22;20170;-85
2023/10/27 14:08:16;;;;;;;14.63;10.23;;;;;;;;;;6248534;22;20086;-85
2023/10/27 14:10:42;;;;;;;15.70;10.75;;;;;;;;;;6249388;22;20016;-85
2023/10/27 14:13:09;;;;;;;17.17;11.65;;;;;;;;;;6248599;22;20070;-85
2023/10/27 14:15:36;;;;;;;16.60;11.10;;;;;;;;;;6248403;22;20027;-85
2023/10/27 14:18:05;;;;;;;14.98;9.88;;;;;;;;;;6248611;22;20090;-85
2023/10/27 14:20:31;;;;;;;14.07;9.20;;;;;;;;;;6248781;22;20024;-85